sensor_id;sensor_type;location;lat;lon;timestamp;temperature;humidity
48208;DHT22;33997;53.278;9.708;2024-01-16T00:01:45;-3275.60;98.80
48208;DHT22;33997;53.278;9.708;2024-01-16T00:04:11;-3275.60;98.90
48208;DHT22;33997;53.278;9.708;2024-01-16T00:06:43;-3275.50;98.80
48208;DHT22;33997;53.278;9.708;2024-01-16T00:09:09;-3275.50;98.70
48208;DHT22;33997;53.278;9.708;2024-01-16T00:11:43;-3275.40;98.60
48208;DHT22;33997;53.278;9.708;2024-01-16T00:14:09;-3275.40;98.50
48208;DHT22;33997;53.278;9.708;2024-01-16T00:16:45;-3275.40;98.60
48208;DHT22;33997;53.278;9.708;2024-01-16T00:19:11;-3275.40;98.60
48208;DHT22;33997;53.278;9.708;2024-01-16T00:21:44;-3275.30;98.60
48208;DHT22;33997;53.278;9.708;2024-01-16T00:24:13;-3275.30;98.70
48208;DHT22;33997;53.278;9.708;2024-01-16T00:26:39;-3275.20;98.80
48208;DHT22;33997;53.278;9.708;2024-01-16T00:29:05;-3275.30;98.90
48208;DHT22;33997;53.278;9.708;2024-01-16T00:31:31;-3275.30;99.00
48208;DHT22;33997;53.278;9.708;2024-01-16T00:33:56;-3275.30;99.10
48208;DHT22;33997;53.278;9.708;2024-01-16T00:36:21;-3275.20;99.00
48208;DHT22;33997;53.278;9.708;2024-01-16T00:38:48;-3275.20;99.10
48208;DHT22;33997;53.278;9.708;2024-01-16T00:41:13;-3275.20;99.10
48208;DHT22;33997;53.278;9.708;2024-01-16T00:43:45;-3275.10;99.10
48208;DHT22;33997;53.278;9.708;2024-01-16T00:46:11;-3275.10;99.20
48208;DHT22;33997;53.278;9.708;2024-01-16T00:48:36;-3275.10;99.20
48208;DHT22;33997;53.278;9.708;2024-01-16T00:51:02;-3275.00;99.20
48208;DHT22;33997;53.278;9.708;2024-01-16T00:53:27;-3275.00;99.20
48208;DHT22;33997;53.278;9.708;2024-01-16T00:55:53;-3275.00;99.20
48208;DHT22;33997;53.278;9.708;2024-01-16T00:58:23;-3275.00;99.20
48208;DHT22;33997;53.278;9.708;2024-01-16T01:00:48;-3274.90;99.20
48208;DHT22;33997;53.278;9.708;2024-01-16T01:03:14;-3274.90;99.40
48208;DHT22;33997;53.278;9.708;2024-01-16T01:05:39;-3274.90;99.30
48208;DHT22;33997;53.278;9.708;2024-01-16T01:08:05;-3274.80;99.30
48208;DHT22;33997;53.278;9.708;2024-01-16T01:10:31;-3274.90;99.40
48208;DHT22;33997;53.278;9.708;2024-01-16T01:12:56;-3274.80;99.40
48208;DHT22;33997;53.278;9.708;2024-01-16T01:15:22;-3274.80;99.40
48208;DHT22;33997;53.278;9.708;2024-01-16T01:17:51;-3274.80;99.50
48208;DHT22;33997;53.278;9.708;2024-01-16T01:20:18;-3274.90;99.50
48208;DHT22;33997;53.278;9.708;2024-01-16T01:22:45;-3274.90;99.60
48208;DHT22;33997;53.278;9.708;2024-01-16T01:25:11;-3274.90;99.60
48208;DHT22;33997;53.278;9.708;2024-01-16T01:27:37;-3275.00;99.60
48208;DHT22;33997;53.278;9.708;2024-01-16T01:30:03;-3275.00;99.60
48208;DHT22;33997;53.278;9.708;2024-01-16T01:32:29;-3275.00;99.60
48208;DHT22;33997;53.278;9.708;2024-01-16T01:34:54;-3274.90;99.60
48208;DHT22;33997;53.278;9.708;2024-01-16T01:37:20;-3274.90;99.60
48208;DHT22;33997;53.278;9.708;2024-01-16T01:39:45;-3274.90;99.60
48208;DHT22;33997;53.278;9.708;2024-01-16T01:42:11;-3274.90;99.70
48208;DHT22;33997;53.278;9.708;2024-01-16T01:44:36;-3274.90;99.70
48208;DHT22;33997;53.278;9.708;2024-01-16T01:47:02;-3274.90;99.70
48208;DHT22;33997;53.278;9.708;2024-01-16T01:49:28;-3274.90;99.70
48208;DHT22;33997;53.278;9.708;2024-01-16T01:51:55;-3274.90;99.60
48208;DHT22;33997;53.278;9.708;2024-01-16T01:54:21;-3274.80;99.70
48208;DHT22;33997;53.278;9.708;2024-01-16T01:56:48;-3274.90;99.80
48208;DHT22;33997;53.278;9.708;2024-01-16T01:59:14;-3274.90;99.80
48208;DHT22;33997;53.278;9.708;2024-01-16T02:01:44;-3274.90;99.80
48208;DHT22;33997;53.278;9.708;2024-01-16T02:04:10;-3274.90;99.80
48208;DHT22;33997;53.278;9.708;2024-01-16T02:06:37;-3274.90;99.80
48208;DHT22;33997;53.278;9.708;2024-01-16T02:09:03;-3274.90;99.80
48208;DHT22;33997;53.278;9.708;2024-01-16T02:11:32;-3274.90;99.80
48208;DHT22;33997;53.278;9.708;2024-01-16T02:13:57;-3275.00;99.70
48208;DHT22;33997;53.278;9.708;2024-01-16T02:16:24;-3275.00;99.70
48208;DHT22;33997;53.278;9.708;2024-01-16T02:18:51;-3274.90;99.70
48208;DHT22;33997;53.278;9.708;2024-01-16T02:21:25;-3275.00;99.70
48208;DHT22;33997;53.278;9.708;2024-01-16T02:23:53;-3275.00;99.80
48208;DHT22;33997;53.278;9.708;2024-01-16T02:26:19;-3275.00;99.60
48208;DHT22;33997;53.278;9.708;2024-01-16T02:28:44;-3275.00;99.70
48208;DHT22;33997;53.278;9.708;2024-01-16T02:31:10;-3275.00;99.70
48208;DHT22;33997;53.278;9.708;2024-01-16T02:33:36;-3275.00;99.70
48208;DHT22;33997;53.278;9.708;2024-01-16T02:36:01;-3275.10;99.60
48208;DHT22;33997;53.278;9.708;2024-01-16T02:38:27;-3275.10;99.60
48208;DHT22;33997;53.278;9.708;2024-01-16T02:40:52;-3275.10;99.60
48208;DHT22;33997;53.278;9.708;2024-01-16T02:43:17;-3275.10;99.60
48208;DHT22;33997;53.278;9.708;2024-01-16T02:45:43;-3275.20;99.60
48208;DHT22;33997;53.278;9.708;2024-01-16T02:48:09;-3275.30;99.70
48208;DHT22;33997;53.278;9.708;2024-01-16T02:50:34;-3275.20;99.60
48208;DHT22;33997;53.278;9.708;2024-01-16T02:53:00;-3275.20;99.50
48208;DHT22;33997;53.278;9.708;2024-01-16T02:55:25;-3275.30;99.60
48208;DHT22;33997;53.278;9.708;2024-01-16T02:57:51;-3275.30;99.70
48208;DHT22;33997;53.278;9.708;2024-01-16T03:00:16;-3275.30;99.60
48208;DHT22;33997;53.278;9.708;2024-01-16T03:02:43;-3275.30;99.60
48208;DHT22;33997;53.278;9.708;2024-01-16T03:05:09;-3275.30;99.60
48208;DHT22;33997;53.278;9.708;2024-01-16T03:07:35;-3275.30;99.60
48208;DHT22;33997;53.278;9.708;2024-01-16T03:10:00;-3275.30;99.60
48208;DHT22;33997;53.278;9.708;2024-01-16T03:12:26;-3275.30;99.60
48208;DHT22;33997;53.278;9.708;2024-01-16T03:14:52;-3275.30;99.60
48208;DHT22;33997;53.278;9.708;2024-01-16T03:17:18;-3275.30;99.60
48208;DHT22;33997;53.278;9.708;2024-01-16T03:19:44;-3275.30;99.60
48208;DHT22;33997;53.278;9.708;2024-01-16T03:22:10;-3275.30;99.70
48208;DHT22;33997;53.278;9.708;2024-01-16T03:24:35;-3275.30;99.80
48208;DHT22;33997;53.278;9.708;2024-01-16T03:27:01;-3275.40;99.80
48208;DHT22;33997;53.278;9.708;2024-01-16T03:29:26;-3275.40;99.90
48208;DHT22;33997;53.278;9.708;2024-01-16T03:31:52;-3275.50;99.90
48208;DHT22;33997;53.278;9.708;2024-01-16T03:34:18;-3275.50;99.90
48208;DHT22;33997;53.278;9.708;2024-01-16T03:36:44;-3275.50;99.90
48208;DHT22;33997;53.278;9.708;2024-01-16T03:39:09;-3275.60;99.90
48208;DHT22;33997;53.278;9.708;2024-01-16T03:41:35;-3275.60;99.90
48208;DHT22;33997;53.278;9.708;2024-01-16T03:44:00;-3275.60;99.90
48208;DHT22;33997;53.278;9.708;2024-01-16T03:46:26;-3275.60;99.90
48208;DHT22;33997;53.278;9.708;2024-01-16T03:48:51;-3275.50;99.90
48208;DHT22;33997;53.278;9.708;2024-01-16T03:51:17;-3275.40;99.90
48208;DHT22;33997;53.278;9.708;2024-01-16T03:53:45;-3275.30;99.90
48208;DHT22;33997;53.278;9.708;2024-01-16T03:56:10;-3275.10;99.90
48208;DHT22;33997;53.278;9.708;2024-01-16T03:58:36;-3275.20;99.90
48208;DHT22;33997;53.278;9.708;2024-01-16T04:01:01;-3275.20;99.90
48208;DHT22;33997;53.278;9.708;2024-01-16T04:03:27;-3275.30;99.90
48208;DHT22;33997;53.278;9.708;2024-01-16T04:05:52;-3275.20;99.90
48208;DHT22;33997;53.278;9.708;2024-01-16T04:08:18;-3275.30;99.90
48208;DHT22;33997;53.278;9.708;2024-01-16T04:10:43;-3275.20;99.90
48208;DHT22;33997;53.278;9.708;2024-01-16T04:13:09;-3275.20;99.90
48208;DHT22;33997;53.278;9.708;2024-01-16T04:15:38;-3275.10;99.90
48208;DHT22;33997;53.278;9.708;2024-01-16T04:18:03;-3275.00;99.90
48208;DHT22;33997;53.278;9.708;2024-01-16T04:20:29;-3275.10;99.90
48208;DHT22;33997;53.278;9.708;2024-01-16T04:22:54;-3275.00;99.90
48208;DHT22;33997;53.278;9.708;2024-01-16T04:25:20;-3275.10;99.90
48208;DHT22;33997;53.278;9.708;2024-01-16T04:27:45;-3275.20;99.90
48208;DHT22;33997;53.278;9.708;2024-01-16T04:30:11;-3275.20;99.90
48208;DHT22;33997;53.278;9.708;2024-01-16T04:32:37;-3275.30;99.90
48208;DHT22;33997;53.278;9.708;2024-01-16T04:35:03;-3275.30;99.90
48208;DHT22;33997;53.278;9.708;2024-01-16T04:37:29;-3275.40;99.90
48208;DHT22;33997;53.278;9.708;2024-01-16T04:39:54;-3275.30;99.90
48208;DHT22;33997;53.278;9.708;2024-01-16T04:42:20;-3275.40;99.90
48208;DHT22;33997;53.278;9.708;2024-01-16T04:44:45;-3275.40;99.90
48208;DHT22;33997;53.278;9.708;2024-01-16T04:47:11;-3275.40;99.90
48208;DHT22;33997;53.278;9.708;2024-01-16T04:49:37;-3275.30;99.90
48208;DHT22;33997;53.278;9.708;2024-01-16T04:52:02;-3275.30;99.90
48208;DHT22;33997;53.278;9.708;2024-01-16T04:54:28;-3275.30;99.90
48208;DHT22;33997;53.278;9.708;2024-01-16T04:56:54;-3275.40;99.90
48208;DHT22;33997;53.278;9.708;2024-01-16T04:59:19;-3275.40;99.90
48208;DHT22;33997;53.278;9.708;2024-01-16T05:01:45;-3275.40;99.90
48208;DHT22;33997;53.278;9.708;2024-01-16T05:04:11;-3275.40;99.90
48208;DHT22;33997;53.278;9.708;2024-01-16T05:06:36;-3275.40;99.90
48208;DHT22;33997;53.278;9.708;2024-01-16T05:09:02;-3275.40;99.90
48208;DHT22;33997;53.278;9.708;2024-01-16T05:11:28;-3275.50;99.90
48208;DHT22;33997;53.278;9.708;2024-01-16T05:13:54;-3275.30;99.90
48208;DHT22;33997;53.278;9.708;2024-01-16T05:16:24;-3275.30;99.90
48208;DHT22;33997;53.278;9.708;2024-01-16T05:18:50;-3275.40;99.90
48208;DHT22;33997;53.278;9.708;2024-01-16T05:21:15;-3275.40;99.90
48208;DHT22;33997;53.278;9.708;2024-01-16T05:23:41;-3275.50;99.90
48208;DHT22;33997;53.278;9.708;2024-01-16T05:26:06;-3275.50;99.90
48208;DHT22;33997;53.278;9.708;2024-01-16T05:28:32;-3275.50;99.90
48208;DHT22;33997;53.278;9.708;2024-01-16T05:30:57;-3275.50;99.90
48208;DHT22;33997;53.278;9.708;2024-01-16T05:33:23;-3275.60;99.90
48208;DHT22;33997;53.278;9.708;2024-01-16T05:35:48;-3275.60;99.80
48208;DHT22;33997;53.278;9.708;2024-01-16T05:38:14;-3275.50;99.70
48208;DHT22;33997;53.278;9.708;2024-01-16T05:40:39;-3275.60;99.70
48208;DHT22;33997;53.278;9.708;2024-01-16T05:43:05;-3275.60;99.70
48208;DHT22;33997;53.278;9.708;2024-01-16T05:45:30;-3275.60;99.60
48208;DHT22;33997;53.278;9.708;2024-01-16T05:47:56;-3275.50;99.70
48208;DHT22;33997;53.278;9.708;2024-01-16T05:50:21;-3275.50;99.60
48208;DHT22;33997;53.278;9.708;2024-01-16T05:52:47;-3275.40;99.70
48208;DHT22;33997;53.278;9.708;2024-01-16T05:55:12;-3275.40;99.80
48208;DHT22;33997;53.278;9.708;2024-01-16T05:57:38;-3275.40;99.80
48208;DHT22;33997;53.278;9.708;2024-01-16T06:00:04;-3275.50;99.90
48208;DHT22;33997;53.278;9.708;2024-01-16T06:02:31;-3275.50;99.90
48208;DHT22;33997;53.278;9.708;2024-01-16T06:04:56;-3275.50;99.90
48208;DHT22;33997;53.278;9.708;2024-01-16T06:07:21;-3275.60;99.90
48208;DHT22;33997;53.278;9.708;2024-01-16T06:09:47;-3275.60;99.90
48208;DHT22;33997;53.278;9.708;2024-01-16T06:12:13;-3275.60;99.80
48208;DHT22;33997;53.278;9.708;2024-01-16T06:14:38;-3275.60;99.80
48208;DHT22;33997;53.278;9.708;2024-01-16T06:17:05;-3275.60;99.80
48208;DHT22;33997;53.278;9.708;2024-01-16T06:19:31;-3275.60;99.70
48208;DHT22;33997;53.278;9.708;2024-01-16T06:21:58;-3275.60;99.60
48208;DHT22;33997;53.278;9.708;2024-01-16T06:24:24;-3275.70;99.60
48208;DHT22;33997;53.278;9.708;2024-01-16T06:26:49;-3275.60;99.60
48208;DHT22;33997;53.278;9.708;2024-01-16T06:29:15;-3275.70;99.60
48208;DHT22;33997;53.278;9.708;2024-01-16T06:31:40;-3275.60;99.60
48208;DHT22;33997;53.278;9.708;2024-01-16T06:34:06;-3275.60;99.50
48208;DHT22;33997;53.278;9.708;2024-01-16T06:36:31;-3275.60;99.60
48208;DHT22;33997;53.278;9.708;2024-01-16T06:38:57;-3275.50;99.50
48208;DHT22;33997;53.278;9.708;2024-01-16T06:41:22;-3275.50;99.60
48208;DHT22;33997;53.278;9.708;2024-01-16T06:43:48;-3275.50;99.60
48208;DHT22;33997;53.278;9.708;2024-01-16T06:46:13;-3275.40;99.60
48208;DHT22;33997;53.278;9.708;2024-01-16T06:48:39;-3275.40;99.70
48208;DHT22;33997;53.278;9.708;2024-01-16T06:51:05;-3275.30;99.70
48208;DHT22;33997;53.278;9.708;2024-01-16T06:53:30;-3275.30;99.70
48208;DHT22;33997;53.278;9.708;2024-01-16T06:55:56;-3275.30;99.80
48208;DHT22;33997;53.278;9.708;2024-01-16T06:58:21;-3275.30;99.80
48208;DHT22;33997;53.278;9.708;2024-01-16T07:00:47;-3275.30;99.80
48208;DHT22;33997;53.278;9.708;2024-01-16T07:03:13;-3275.30;99.80
48208;DHT22;33997;53.278;9.708;2024-01-16T07:05:39;-3275.30;99.70
48208;DHT22;33997;53.278;9.708;2024-01-16T07:08:06;-3275.20;99.70
48208;DHT22;33997;53.278;9.708;2024-01-16T07:10:32;-3275.20;99.80
48208;DHT22;33997;53.278;9.708;2024-01-16T07:12:57;-3275.20;99.80
48208;DHT22;33997;53.278;9.708;2024-01-16T07:15:23;-3275.20;99.80
48208;DHT22;33997;53.278;9.708;2024-01-16T07:17:48;-3275.30;99.80
48208;DHT22;33997;53.278;9.708;2024-01-16T07:20:14;-3275.30;99.80
48208;DHT22;33997;53.278;9.708;2024-01-16T07:22:39;-3275.30;99.80
48208;DHT22;33997;53.278;9.708;2024-01-16T07:25:06;-3275.30;99.70
48208;DHT22;33997;53.278;9.708;2024-01-16T07:27:32;-3275.30;99.70
48208;DHT22;33997;53.278;9.708;2024-01-16T07:29:57;-3275.30;99.60
48208;DHT22;33997;53.278;9.708;2024-01-16T07:32:23;-3275.30;99.60
48208;DHT22;33997;53.278;9.708;2024-01-16T07:34:48;-3275.40;99.60
48208;DHT22;33997;53.278;9.708;2024-01-16T07:37:13;-3275.40;99.60
48208;DHT22;33997;53.278;9.708;2024-01-16T07:39:41;-3275.40;99.50
48208;DHT22;33997;53.278;9.708;2024-01-16T07:42:06;-3275.30;99.40
48208;DHT22;33997;53.278;9.708;2024-01-16T07:44:32;-3275.30;99.40
48208;DHT22;33997;53.278;9.708;2024-01-16T07:46:57;-3275.30;99.40
48208;DHT22;33997;53.278;9.708;2024-01-16T07:49:23;-3275.30;99.40
48208;DHT22;33997;53.278;9.708;2024-01-16T07:51:49;-3275.30;99.40
48208;DHT22;33997;53.278;9.708;2024-01-16T07:54:14;-3275.40;99.50
48208;DHT22;33997;53.278;9.708;2024-01-16T07:56:40;-3275.40;99.50
48208;DHT22;33997;53.278;9.708;2024-01-16T07:59:05;-3275.50;99.40
48208;DHT22;33997;53.278;9.708;2024-01-16T08:01:32;-3275.50;99.50
48208;DHT22;33997;53.278;9.708;2024-01-16T08:03:57;-3275.60;99.40
48208;DHT22;33997;53.278;9.708;2024-01-16T08:06:23;-3275.60;99.40
48208;DHT22;33997;53.278;9.708;2024-01-16T08:08:49;-3275.70;99.40
48208;DHT22;33997;53.278;9.708;2024-01-16T08:11:15;-3275.70;99.40
48208;DHT22;33997;53.278;9.708;2024-01-16T08:13:41;-3275.70;99.30
48208;DHT22;33997;53.278;9.708;2024-01-16T08:16:07;-3275.80;99.20
48208;DHT22;33997;53.278;9.708;2024-01-16T08:18:34;-3275.80;99.10
48208;DHT22;33997;53.278;9.708;2024-01-16T08:20:59;-3275.80;99.00
48208;DHT22;33997;53.278;9.708;2024-01-16T08:23:25;-3275.80;98.90
48208;DHT22;33997;53.278;9.708;2024-01-16T08:25:50;-3275.90;98.90
48208;DHT22;33997;53.278;9.708;2024-01-16T08:28:17;-3275.90;98.90
48208;DHT22;33997;53.278;9.708;2024-01-16T08:30:43;-3275.90;98.90
48208;DHT22;33997;53.278;9.708;2024-01-16T08:33:08;-3275.90;98.80
48208;DHT22;33997;53.278;9.708;2024-01-16T08:35:34;-3275.90;98.80
48208;DHT22;33997;53.278;9.708;2024-01-16T08:37:59;-3276.00;98.70
48208;DHT22;33997;53.278;9.708;2024-01-16T08:40:25;-3276.00;98.60
48208;DHT22;33997;53.278;9.708;2024-01-16T08:42:50;-3276.10;98.50
48208;DHT22;33997;53.278;9.708;2024-01-16T08:45:20;-3276.10;98.30
48208;DHT22;33997;53.278;9.708;2024-01-16T08:47:46;-3276.10;98.20
48208;DHT22;33997;53.278;9.708;2024-01-16T08:50:12;-3276.10;98.10
48208;DHT22;33997;53.278;9.708;2024-01-16T08:52:37;-3276.10;98.00
48208;DHT22;33997;53.278;9.708;2024-01-16T08:55:03;-3276.20;97.90
48208;DHT22;33997;53.278;9.708;2024-01-16T08:57:29;-3276.40;97.90
48208;DHT22;33997;53.278;9.708;2024-01-16T08:59:55;-3276.40;97.70
48208;DHT22;33997;53.278;9.708;2024-01-16T09:02:20;-3276.40;97.50
48208;DHT22;33997;53.278;9.708;2024-01-16T09:04:47;-3276.50;97.60
48208;DHT22;33997;53.278;9.708;2024-01-16T09:07:13;-3276.40;97.10
48208;DHT22;33997;53.278;9.708;2024-01-16T09:09:41;-3276.50;97.20
48208;DHT22;33997;53.278;9.708;2024-01-16T09:12:08;-3276.60;97.20
48208;DHT22;33997;53.278;9.708;2024-01-16T09:14:33;-3276.50;97.00
48208;DHT22;33997;53.278;9.708;2024-01-16T09:16:59;-3276.40;97.00
48208;DHT22;33997;53.278;9.708;2024-01-16T09:19:24;-3276.40;97.20
48208;DHT22;33997;53.278;9.708;2024-01-16T09:21:50;-3276.40;97.40
48208;DHT22;33997;53.278;9.708;2024-01-16T09:24:15;-3276.40;97.20
48208;DHT22;33997;53.278;9.708;2024-01-16T09:26:41;-3276.50;97.30
48208;DHT22;33997;53.278;9.708;2024-01-16T09:29:08;-3276.40;97.30
48208;DHT22;33997;53.278;9.708;2024-01-16T09:31:34;-3276.40;97.50
48208;DHT22;33997;53.278;9.708;2024-01-16T09:34:01;-3276.50;97.40
48208;DHT22;33997;53.278;9.708;2024-01-16T09:36:26;-3276.60;97.30
48208;DHT22;33997;53.278;9.708;2024-01-16T09:38:52;-3276.70;97.30
48208;DHT22;33997;53.278;9.708;2024-01-16T09:41:17;-3276.60;97.20
48208;DHT22;33997;53.278;9.708;2024-01-16T09:43:44;-3276.60;97.20
48208;DHT22;33997;53.278;9.708;2024-01-16T09:46:11;-3276.70;97.20
48208;DHT22;33997;53.278;9.708;2024-01-16T09:48:37;0.00;96.90
48208;DHT22;33997;53.278;9.708;2024-01-16T09:51:03;0.00;97.10
48208;DHT22;33997;53.278;9.708;2024-01-16T09:53:29;0.00;97.10
48208;DHT22;33997;53.278;9.708;2024-01-16T09:55:55;-3276.70;97.30
48208;DHT22;33997;53.278;9.708;2024-01-16T09:58:23;0.00;97.30
48208;DHT22;33997;53.278;9.708;2024-01-16T10:00:49;-3276.70;97.40
48208;DHT22;33997;53.278;9.708;2024-01-16T10:03:15;-3276.70;97.60
48208;DHT22;33997;53.278;9.708;2024-01-16T10:05:42;-3276.70;97.80
48208;DHT22;33997;53.278;9.708;2024-01-16T10:08:08;-3276.70;97.70
48208;DHT22;33997;53.278;9.708;2024-01-16T10:10:34;0.00;97.80
48208;DHT22;33997;53.278;9.708;2024-01-16T10:12:59;0.00;97.80
48208;DHT22;33997;53.278;9.708;2024-01-16T10:15:25;0.00;97.70
48208;DHT22;33997;53.278;9.708;2024-01-16T10:17:51;0.00;97.80
48208;DHT22;33997;53.278;9.708;2024-01-16T10:20:34;0.00;97.70
48208;DHT22;33997;53.278;9.708;2024-01-16T10:23:00;0.00;97.80
48208;DHT22;33997;53.278;9.708;2024-01-16T10:25:25;0.00;97.70
48208;DHT22;33997;53.278;9.708;2024-01-16T10:28:03;0.00;97.70
48208;DHT22;33997;53.278;9.708;2024-01-16T10:30:30;0.10;97.50
48208;DHT22;33997;53.278;9.708;2024-01-16T10:32:55;0.10;97.40
48208;DHT22;33997;53.278;9.708;2024-01-16T10:35:22;0.20;97.40
48208;DHT22;33997;53.278;9.708;2024-01-16T10:37:54;0.20;97.10
48208;DHT22;33997;53.278;9.708;2024-01-16T10:40:21;0.20;97.20
48208;DHT22;33997;53.278;9.708;2024-01-16T10:43:17;0.20;97.20
48208;DHT22;33997;53.278;9.708;2024-01-16T10:45:42;0.20;97.20
48208;DHT22;33997;53.278;9.708;2024-01-16T10:48:08;0.20;97.30
48208;DHT22;33997;53.278;9.708;2024-01-16T10:50:35;0.20;97.40
48208;DHT22;33997;53.278;9.708;2024-01-16T10:53:05;0.30;97.40
48208;DHT22;33997;53.278;9.708;2024-01-16T10:55:31;0.20;97.40
48208;DHT22;33997;53.278;9.708;2024-01-16T10:57:58;0.20;97.50
48208;DHT22;33997;53.278;9.708;2024-01-16T11:00:28;0.10;97.50
48208;DHT22;33997;53.278;9.708;2024-01-16T11:03:06;0.10;97.70
48208;DHT22;33997;53.278;9.708;2024-01-16T11:05:34;0.10;97.80
48208;DHT22;33997;53.278;9.708;2024-01-16T11:08:01;0.10;97.70
48208;DHT22;33997;53.278;9.708;2024-01-16T11:10:27;0.10;97.50
48208;DHT22;33997;53.278;9.708;2024-01-16T11:12:54;0.30;97.30
48208;DHT22;33997;53.278;9.708;2024-01-16T11:15:21;0.40;97.30
48208;DHT22;33997;53.278;9.708;2024-01-16T11:17:47;0.40;96.90
48208;DHT22;33997;53.278;9.708;2024-01-16T11:20:15;0.40;97.00
48208;DHT22;33997;53.278;9.708;2024-01-16T11:22:43;0.30;97.20
48208;DHT22;33997;53.278;9.708;2024-01-16T11:25:14;0.20;97.20
48208;DHT22;33997;53.278;9.708;2024-01-16T11:27:42;0.30;97.30
48208;DHT22;33997;53.278;9.708;2024-01-16T11:30:09;0.30;97.30
48208;DHT22;33997;53.278;9.708;2024-01-16T11:32:39;0.30;97.20
48208;DHT22;33997;53.278;9.708;2024-01-16T11:35:09;0.30;97.10
48208;DHT22;33997;53.278;9.708;2024-01-16T11:37:36;0.20;97.30
48208;DHT22;33997;53.278;9.708;2024-01-16T11:42:51;0.20;97.50
48208;DHT22;33997;53.278;9.708;2024-01-16T11:48:08;0.40;97.00
48208;DHT22;33997;53.278;9.708;2024-01-16T11:50:37;0.60;96.50
48208;DHT22;33997;53.278;9.708;2024-01-16T11:53:03;0.60;96.20
48208;DHT22;33997;53.278;9.708;2024-01-16T11:55:34;0.60;96.30
48208;DHT22;33997;53.278;9.708;2024-01-16T12:00:45;0.40;96.80
48208;DHT22;33997;53.278;9.708;2024-01-16T12:03:13;0.40;97.00
48208;DHT22;33997;53.278;9.708;2024-01-16T12:05:39;0.40;97.10
48208;DHT22;33997;53.278;9.708;2024-01-16T12:08:05;0.30;97.20
48208;DHT22;33997;53.278;9.708;2024-01-16T12:10:31;0.40;97.30
48208;DHT22;33997;53.278;9.708;2024-01-16T12:12:58;0.40;97.20
48208;DHT22;33997;53.278;9.708;2024-01-16T12:15:24;0.40;97.40
48208;DHT22;33997;53.278;9.708;2024-01-16T12:18:01;0.50;97.10
48208;DHT22;33997;53.278;9.708;2024-01-16T12:20:31;0.50;97.00
48208;DHT22;33997;53.278;9.708;2024-01-16T12:23:07;0.60;97.00
48208;DHT22;33997;53.278;9.708;2024-01-16T12:25:34;0.50;97.00
48208;DHT22;33997;53.278;9.708;2024-01-16T12:28:05;0.40;96.70
48208;DHT22;33997;53.278;9.708;2024-01-16T12:30:32;0.40;96.80
48208;DHT22;33997;53.278;9.708;2024-01-16T12:33:08;0.50;96.90
48208;DHT22;33997;53.278;9.708;2024-01-16T12:35:44;0.50;97.10
48208;DHT22;33997;53.278;9.708;2024-01-16T12:38:13;0.40;97.20
48208;DHT22;33997;53.278;9.708;2024-01-16T12:40:50;0.30;97.20
48208;DHT22;33997;53.278;9.708;2024-01-16T12:43:19;0.30;97.40
48208;DHT22;33997;53.278;9.708;2024-01-16T12:45:45;0.30;97.40
48208;DHT22;33997;53.278;9.708;2024-01-16T12:48:11;0.20;97.50
48208;DHT22;33997;53.278;9.708;2024-01-16T12:50:37;0.30;97.50
48208;DHT22;33997;53.278;9.708;2024-01-16T12:53:08;0.30;97.60
48208;DHT22;33997;53.278;9.708;2024-01-16T12:55:37;0.20;97.40
48208;DHT22;33997;53.278;9.708;2024-01-16T13:00:48;0.20;97.70
48208;DHT22;33997;53.278;9.708;2024-01-16T13:03:17;0.20;97.80
48208;DHT22;33997;53.278;9.708;2024-01-16T13:05:44;0.10;97.60
48208;DHT22;33997;53.278;9.708;2024-01-16T13:08:16;0.20;97.40
48208;DHT22;33997;53.278;9.708;2024-01-16T13:10:42;0.30;97.40
48208;DHT22;33997;53.278;9.708;2024-01-16T13:13:17;0.30;97.20
48208;DHT22;33997;53.278;9.708;2024-01-16T13:15:44;0.30;97.20
48208;DHT22;33997;53.278;9.708;2024-01-16T13:18:27;0.30;97.20
48208;DHT22;33997;53.278;9.708;2024-01-16T13:20:54;0.30;97.00
48208;DHT22;33997;53.278;9.708;2024-01-16T13:23:20;0.20;97.20
48208;DHT22;33997;53.278;9.708;2024-01-16T13:25:48;0.20;97.00
48208;DHT22;33997;53.278;9.708;2024-01-16T13:28:14;0.20;97.00
48208;DHT22;33997;53.278;9.708;2024-01-16T13:30:41;0.20;97.00
48208;DHT22;33997;53.278;9.708;2024-01-16T13:33:06;0.20;96.90
48208;DHT22;33997;53.278;9.708;2024-01-16T13:35:34;0.20;96.80
48208;DHT22;33997;53.278;9.708;2024-01-16T13:38:01;0.20;97.00
48208;DHT22;33997;53.278;9.708;2024-01-16T13:40:27;0.20;97.20
48208;DHT22;33997;53.278;9.708;2024-01-16T13:42:52;0.20;97.30
48208;DHT22;33997;53.278;9.708;2024-01-16T13:45:18;0.20;97.40
48208;DHT22;33997;53.278;9.708;2024-01-16T13:47:44;0.20;97.50
48208;DHT22;33997;53.278;9.708;2024-01-16T13:50:09;0.10;97.60
48208;DHT22;33997;53.278;9.708;2024-01-16T13:52:35;0.10;97.70
48208;DHT22;33997;53.278;9.708;2024-01-16T13:55:02;0.10;97.70
48208;DHT22;33997;53.278;9.708;2024-01-16T13:57:31;0.00;97.80
48208;DHT22;33997;53.278;9.708;2024-01-16T13:59:57;0.00;97.80
48208;DHT22;33997;53.278;9.708;2024-01-16T14:02:22;0.00;97.70
48208;DHT22;33997;53.278;9.708;2024-01-16T14:04:48;0.10;97.80
48208;DHT22;33997;53.278;9.708;2024-01-16T14:07:13;0.00;97.70
48208;DHT22;33997;53.278;9.708;2024-01-16T14:09:39;0.00;97.80
48208;DHT22;33997;53.278;9.708;2024-01-16T14:12:06;0.00;97.80
48208;DHT22;33997;53.278;9.708;2024-01-16T14:14:33;0.00;97.70
48208;DHT22;33997;53.278;9.708;2024-01-16T14:16:59;0.00;97.80
48208;DHT22;33997;53.278;9.708;2024-01-16T14:19:25;0.00;97.80
48208;DHT22;33997;53.278;9.708;2024-01-16T14:21:52;0.00;97.90
48208;DHT22;33997;53.278;9.708;2024-01-16T14:24:18;0.00;98.10
48208;DHT22;33997;53.278;9.708;2024-01-16T14:26:44;0.00;98.10
48208;DHT22;33997;53.278;9.708;2024-01-16T14:29:10;0.00;98.20
48208;DHT22;33997;53.278;9.708;2024-01-16T14:31:36;0.00;98.20
48208;DHT22;33997;53.278;9.708;2024-01-16T14:34:01;0.00;98.20
48208;DHT22;33997;53.278;9.708;2024-01-16T14:36:29;0.00;98.10
48208;DHT22;33997;53.278;9.708;2024-01-16T14:38:54;0.00;98.20
48208;DHT22;33997;53.278;9.708;2024-01-16T14:41:20;0.00;98.10
48208;DHT22;33997;53.278;9.708;2024-01-16T14:43:46;0.00;98.10
48208;DHT22;33997;53.278;9.708;2024-01-16T14:46:12;0.00;98.10
48208;DHT22;33997;53.278;9.708;2024-01-16T14:48:43;0.10;98.10
48208;DHT22;33997;53.278;9.708;2024-01-16T14:51:09;0.10;98.10
48208;DHT22;33997;53.278;9.708;2024-01-16T14:53:35;0.10;98.00
48208;DHT22;33997;53.278;9.708;2024-01-16T14:56:01;0.10;97.90
48208;DHT22;33997;53.278;9.708;2024-01-16T14:58:27;0.00;97.90
48208;DHT22;33997;53.278;9.708;2024-01-16T15:00:53;0.10;98.00
48208;DHT22;33997;53.278;9.708;2024-01-16T15:03:19;0.10;98.00
48208;DHT22;33997;53.278;9.708;2024-01-16T15:05:49;0.00;98.10
48208;DHT22;33997;53.278;9.708;2024-01-16T15:08:14;0.10;98.10
48208;DHT22;33997;53.278;9.708;2024-01-16T15:10:40;0.00;98.10
48208;DHT22;33997;53.278;9.708;2024-01-16T15:13:06;0.00;98.20
48208;DHT22;33997;53.278;9.708;2024-01-16T15:15:31;0.00;98.30